Time;durP1;ratioP1;P1;durP2;ratioP2;P2;SDS_P1;SDS_P2;PMS_P1;PMS_P2;Temp;Humidity;BMP_temperature;BMP_pressure;BME280_temperature;BME280_humidity;BME280_pressure;Samples;Min_cycle;Max_cycle;Signal;HPM_P1;HPM_P2
2022/01/07 00:02:13;;;;;;;30.20;18.98;;;;;;;-3.53;86.47;96078.78;6207643;23;20036;-63
2022/01/07 00:04:38;;;;;;;34.47;20.88;;;;;;;-3.55;86.16;96085.72;6207869;23;20015;-63
2022/01/07 00:07:05;;;;;;;32.78;19.50;;;;;;;-3.58;86.68;96083.25;6207497;23;20000;-63
2022/01/07 00:09:30;;;;;;;27.15;16.67;;;;;;;-3.69;87.90;96088.72;6207575;23;19996;-63
2022/01/07 00:11:56;;;;;;;26.85;16.63;;;;;;;-3.74;88.10;96098.31;6207505;23;20007;-63
2022/01/07 00:14:21;;;;;;;23.50;15.88;;;;;;;-3.84;88.77;96099.44;6207495;23;20426;-63
2022/01/07 00:16:47;;;;;;;21.90;14.85;;;;;;;-3.90;88.48;96113.31;6207406;23;20005;-62
2022/01/07 00:19:14;;;;;;;16.73;12.27;;;;;;;-3.97;89.46;96111.81;6207340;23;20061;-63
2022/01/07 00:21:40;;;;;;;20.98;13.63;;;;;;;-4.01;89.93;96108.47;6207807;23;20012;-63
2022/01/07 00:24:05;;;;;;;17.42;12.23;;;;;;;-4.03;89.68;96108.53;6207410;23;20398;-63
2022/01/07 00:26:31;;;;;;;15.02;11.43;;;;;;;-3.99;88.97;96111.84;6205871;23;20012;-64
2022/01/07 00:28:56;;;;;;;24.10;14.35;;;;;;;-3.97;88.41;96109.25;6207503;23;20015;-63
2022/01/07 00:31:22;;;;;;;16.80;11.23;;;;;;;-3.96;88.89;96113.50;6207363;23;20000;-63
2022/01/07 00:33:47;;;;;;;19.63;13.18;;;;;;;-4.00;89.89;96109.31;6207830;23;20004;-63
2022/01/07 00:36:12;;;;;;;18.40;12.77;;;;;;;-4.07;89.44;96109.50;6207566;23;20028;-63
2022/01/07 00:38:38;;;;;;;21.80;13.93;;;;;;;-4.12;90.08;96101.06;6206882;23;20009;-62
2022/01/07 00:41:03;;;;;;;19.35;12.38;;;;;;;-4.12;90.58;96106.19;6205770;23;20011;-63
2022/01/07 00:43:29;;;;;;;18.67;13.00;;;;;;;-4.18;90.53;96101.22;6207111;23;20012;-63
2022/01/07 00:45:55;;;;;;;16.85;11.45;;;;;;;-4.16;90.29;96107.16;6207066;23;20008;-63
2022/01/07 00:48:20;;;;;;;13.73;9.68;;;;;;;-4.13;89.63;96108.81;6206967;23;20093;-63
2022/01/07 00:50:46;;;;;;;10.63;9.40;;;;;;;-4.13;90.06;96104.50;6205681;23;20005;-63
2022/01/07 00:53:11;;;;;;;17.50;13.05;;;;;;;-4.06;88.16;96107.75;6206744;23;20083;-63
2022/01/07 00:55:37;;;;;;;36.72;24.25;;;;;;;-4.11;88.49;96102.75;6206588;23;20016;-63
2022/01/07 00:58:03;;;;;;;41.45;27.10;;;;;;;-4.10;88.87;96101.03;6206995;23;20436;-63
2022/01/07 01:00:29;;;;;;;33.83;23.63;;;;;;;-4.19;89.52;96105.53;6206375;23;20000;-63
2022/01/07 01:02:56;;;;;;;26.52;18.10;;;;;;;-4.28;91.12;96102.38;6207080;23;20692;-63
2022/01/07 01:05:23;;;;;;;24.02;17.05;;;;;;;-4.31;90.66;96103.28;6206763;23;20400;-62
2022/01/07 01:07:48;;;;;;;26.52;17.08;;;;;;;-4.35;90.39;96104.25;6207204;23;20012;-63
2022/01/07 01:10:17;;;;;;;26.42;17.63;;;;;;;-4.35;90.47;96110.22;6207244;23;20000;-63
2022/01/07 01:12:44;;;;;;;23.10;16.73;;;;;;;-4.38;91.28;96105.19;6207110;23;20001;-63
2022/01/07 01:15:12;;;;;;;22.13;14.88;;;;;;;-4.43;92.18;96112.19;6207455;23;20020;-63
2022/01/07 01:17:38;;;;;;;27.45;15.55;;;;;;;-4.43;91.25;96112.19;6206980;23;20008;-63
2022/01/07 01:20:06;;;;;;;18.52;12.88;;;;;;;-4.55;92.13;96110.78;6207057;23;20009;-62
2022/01/07 01:22:32;;;;;;;22.80;14.18;;;;;;;-4.57;93.05;96103.97;6205005;23;20023;-62
2022/01/07 01:24:57;;;;;;;21.27;12.32;;;;;;;-4.54;93.30;96103.88;6205082;23;20009;-63
2022/01/07 01:27:22;;;;;;;14.95;10.77;;;;;;;-4.48;91.19;96103.75;6206074;23;20505;-63
2022/01/07 01:29:48;;;;;;;16.30;10.55;;;;;;;-4.23;89.77;96115.94;6206523;23;20001;-62
2022/01/07 01:32:16;;;;;;;15.63;11.80;;;;;;;-4.17;88.48;96105.50;6206259;23;20440;-62
2022/01/07 01:34:41;;;;;;;17.85;10.48;;;;;;;-4.27;88.86;96106.63;6206132;23;20416;-63
2022/01/07 01:37:06;;;;;;;16.05;10.55;;;;;;;-4.32;89.63;96106.75;6206239;23;20012;-63
2022/01/07 01:39:32;;;;;;;23.33;14.15;;;;;;;-4.39;90.62;96106.06;6206055;23;20012;-63
2022/01/07 01:41:57;;;;;;;18.55;10.75;;;;;;;-4.48;91.95;96109.72;6206066;23;20464;-63
2022/01/07 01:44:23;;;;;;;15.32;10.75;;;;;;;-4.54;91.69;96109.03;6205941;23;20042;-63
2022/01/07 01:46:48;;;;;;;16.35;10.15;;;;;;;-4.55;91.84;96113.34;6204520;23;20013;-63
2022/01/07 01:49:14;;;;;;;14.73;9.48;;;;;;;-4.57;92.70;96119.38;6205645;23;20091;-63
2022/01/07 01:51:39;;;;;;;12.15;9.75;;;;;;;-4.57;92.21;96129.66;6206099;23;20415;-63
2022/01/07 01:54:05;;;;;;;15.20;10.18;;;;;;;-4.56;91.67;96136.50;6206048;23;20083;-63
2022/01/07 01:56:32;;;;;;;13.82;10.40;;;;;;;-4.60;92.11;96131.44;6205745;23;20016;-62
2022/01/07 01:58:58;;;;;;;17.05;9.88;;;;;;;-4.64;91.74;96139.28;6205932;23;20091;-63
2022/01/07 02:01:23;;;;;;;15.77;9.77;;;;;;;-4.66;91.79;96135.88;6204480;23;20025;-63
2022/01/07 02:03:49;;;;;;;13.73;9.73;;;;;;;-4.68;92.09;96132.50;6205902;23;20009;-62
2022/01/07 02:06:15;;;;;;;13.30;9.68;;;;;;;-4.70;92.18;96141.97;6205977;23;20001;-62
2022/01/07 02:08:41;;;;;;;14.82;10.40;;;;;;;-4.72;91.99;96144.59;6205424;23;20076;-63
2022/01/07 02:11:07;;;;;;;17.45;10.45;;;;;;;-4.71;91.86;96141.16;6206996;23;20028;-63
2022/01/07 02:13:33;;;;;;;11.52;8.35;;;;;;;-4.69;91.45;96147.09;6208118;23;20008;-62
2022/01/07 02:15:59;;;;;;;16.27;9.02;;;;;;;-4.71;92.52;96135.16;6208716;23;20107;-63
2022/01/07 02:18:24;;;;;;;10.60;8.27;;;;;;;-4.81;93.03;96148.25;6207412;23;20008;-63
2022/01/07 02:20:50;;;;;;;10.48;7.97;;;;;;;-4.85;92.39;96144.06;6209030;23;20000;-62
2022/01/07 02:23:20;;;;;;;11.50;7.80;;;;;;;-4.86;93.77;96134.66;6208489;23;20001;-62
2022/01/07 02:25:46;;;;;;;12.48;7.32;;;;;;;-4.90;93.76;96133.03;6207353;23;20024;-62
2022/01/07 02:28:12;;;;;;;10.00;8.20;;;;;;;-4.89;92.48;96127.00;6209138;23;20001;-62
2022/01/07 02:30:38;;;;;;;11.75;7.68;;;;;;;-4.84;92.10;96127.75;6209026;23;20001;-63
2022/01/07 02:33:04;;;;;;;10.35;7.55;;;;;;;-4.82;92.17;96127.72;6208951;23;20011;-62
2022/01/07 02:35:33;;;;;;;12.23;8.52;;;;;;;-4.85;92.57;96117.50;6208318;23;20028;-63
2022/01/07 02:37:59;;;;;;;8.85;7.63;;;;;;;-4.92;92.78;96112.53;6207616;23;20084;-62
2022/01/07 02:40:25;;;;;;;10.38;7.35;;;;;;;-4.91;92.19;96111.66;6208816;23;20122;-62
2022/01/07 02:42:51;;;;;;;8.40;7.20;;;;;;;-4.91;92.95;96110.78;6208813;23;20478;-62
2022/01/07 02:45:16;;;;;;;9.75;7.90;;;;;;;-4.89;92.28;96103.88;6208676;23;20084;-62
2022/01/07 02:47:51;;;;;;;14.95;11.02;;;;;;;-4.84;93.29;96101.22;6208822;23;20009;-63
2022/01/07 02:50:37;;;;;;;16.50;9.75;;;;;;;-4.90;92.80;96097.94;6208903;23;20032;-62
2022/01/07 02:53:04;;;;;;;;;;;;;;;-4.99;93.65;96092.16;6209091;23;20013;-63
2022/01/07 02:55:29;;;;;;;15.32;7.55;;;;;;;-5.01;94.03;96075.97;6208182;23;19916;-63
2022/01/07 02:57:55;;;;;;;9.27;6.90;;;;;;;-5.02;93.87;96087.94;6208768;23;20383;-62
2022/01/07 03:00:22;;;;;;;9.35;7.35;;;;;;;-5.03;93.97;96087.13;6208575;23;20005;-62
2022/01/07 03:02:49;;;;;;;7.68;6.70;;;;;;;-5.03;94.41;96079.41;6209413;23;20510;-62
2022/01/07 03:05:16;;;;;;;9.02;6.13;;;;;;;-5.07;93.83;96080.38;6207639;23;20053;-61
2022/01/07 03:07:42;;;;;;;8.27;5.90;;;;;;;-5.04;93.48;96082.00;6207190;22;20776;-61
2022/01/07 03:10:10;;;;;;;6.47;5.55;;;;;;;-5.02;93.74;96080.25;6208717;23;20001;-62
2022/01/07 03:12:36;;;;;;;6.18;5.55;;;;;;;-5.04;93.63;96082.84;6208787;23;20339;-62
2022/01/07 03:15:04;;;;;;;7.20;5.47;;;;;;;-5.08;94.80;96099.22;6208487;23;20005;-61
2022/01/07 03:17:30;;;;;;;7.03;5.30;;;;;;;-5.10;95.04;96111.22;6207041;22;20013;-62
2022/01/07 03:19:55;;;;;;;6.13;5.57;;;;;;;-5.13;94.65;96110.47;6208990;23;20009;-62
2022/01/07 03:22:21;;;;;;;6.60;4.22;;;;;;;-5.11;93.80;96113.84;6208263;23;20054;-62
2022/01/07 03:24:46;;;;;;;5.63;4.80;;;;;;;-5.12;93.73;96107.84;6208744;23;20348;-62
2022/01/07 03:27:11;;;;;;;5.15;4.75;;;;;;;-5.18;94.17;96119.13;6207672;23;20040;-62
2022/01/07 03:29:37;;;;;;;5.65;5.10;;;;;;;-5.25;94.58;96129.59;6209174;23;19997;-62
2022/01/07 03:32:02;;;;;;;6.57;5.03;;;;;;;-5.28;93.83;96115.06;6209063;23;20431;-62
2022/01/07 03:34:28;;;;;;;5.25;4.80;;;;;;;-5.27;94.29;96123.63;6209421;23;20100;-61
2022/01/07 03:36:53;;;;;;;5.13;4.68;;;;;;;-5.30;93.37;96118.59;6209306;23;20037;-62
2022/01/07 03:39:19;;;;;;;4.13;3.83;;;;;;;-5.32;94.20;96123.72;6209033;23;20417;-62
2022/01/07 03:41:44;;;;;;;6.18;4.53;;;;;;;-5.35;94.42;96116.09;6209658;23;20007;-62
2022/01/07 03:44:10;;;;;;;4.95;4.45;;;;;;;-5.27;93.27;96114.19;6209135;23;20019;-62
2022/01/07 03:46:36;;;;;;;4.40;3.97;;;;;;;-5.15;92.87;96118.22;6209038;23;20001;-62
2022/01/07 03:49:02;;;;;;;6.72;4.88;;;;;;;-5.13;93.04;96113.03;6209155;23;20001;-62
2022/01/07 03:51:27;;;;;;;5.43;4.88;;;;;;;-5.08;93.87;96108.63;6208902;23;20004;-61
2022/01/07 03:53:52;;;;;;;4.63;4.20;;;;;;;-5.09;95.02;96099.25;6209201;23;20008;-62
2022/01/07 03:56:20;;;;;;;6.20;5.10;;;;;;;-5.04;94.65;96099.97;6207256;23;20105;-62
2022/01/07 03:58:46;;;;;;;4.35;3.95;;;;;;;-5.04;95.04;96100.84;6209362;23;20093;-62
2022/01/07 04:01:12;;;;;;;5.05;4.57;;;;;;;-5.00;94.29;96116.16;6209417;23;20004;-62
2022/01/07 04:03:37;;;;;;;4.75;4.28;;;;;;;-4.99;94.36;96105.84;6209284;23;20041;-62
2022/01/07 04:06:02;;;;;;;6.97;4.82;;;;;;;-5.02;93.34;96098.22;6209593;23;20004;-62
2022/01/07 04:08:28;;;;;;;6.18;4.85;;;;;;;-5.05;93.83;96101.72;6209397;23;20001;-62
2022/01/07 04:10:53;;;;;;;5.57;5.07;;;;;;;-5.09;94.40;96097.50;6209415;23;20035;-62
2022/01/07 04:13:18;;;;;;;5.68;4.72;;;;;;;-5.15;94.71;96097.66;6209441;23;20011;-62
2022/01/07 04:15:44;;;;;;;5.65;5.13;;;;;;;-5.15;95.64;96092.53;6209191;23;20083;-62
2022/01/07 04:18:10;;;;;;;7.57;5.43;;;;;;;-5.14;94.81;96098.53;6209457;23;20348;-62
2022/01/07 04:20:36;;;;;;;6.30;5.22;;;;;;;-5.16;94.76;96093.41;6209732;23;20331;-62
2022/01/07 04:23:03;;;;;;;4.82;4.40;;;;;;;-5.17;93.77;96084.03;6209405;23;20001;-62
2022/01/07 04:25:29;;;;;;;5.18;4.68;;;;;;;-5.10;93.01;96089.84;6209114;23;20008;-62
2022/01/07 04:28:00;;;;;;;5.63;5.13;;;;;;;-5.10;92.28;96084.72;6209444;23;20012;-62
2022/01/07 04:30:29;;;;;;;5.70;5.10;;;;;;;-5.15;93.25;96082.25;6209181;23;20001;-62
2022/01/07 04:32:56;;;;;;;5.53;5.03;;;;;;;-5.22;93.92;96089.25;6209337;23;20436;-62
2022/01/07 04:35:22;;;;;;;5.55;4.95;;;;;;;-5.30;94.88;96087.78;6208664;23;20008;-62
2022/01/07 04:37:48;;;;;;;5.20;4.80;;;;;;;-5.32;95.61;96082.66;6209377;23;20000;-62
2022/01/07 04:40:15;;;;;;;6.18;5.05;;;;;;;-5.34;95.00;96090.38;6209213;23;20005;-62
2022/01/07 04:42:42;;;;;;;5.78;5.25;;;;;;;-5.37;94.58;96093.03;6209135;23;20394;-62
2022/01/07 04:45:08;;;;;;;9.25;5.10;;;;;;;-5.33;93.86;96098.94;6209204;23;20012;-62
2022/01/07 04:47:36;;;;;;;6.55;5.60;;;;;;;-5.30;93.67;96096.31;6209264;23;20325;-62
2022/01/07 04:50:08;;;;;;;6.28;5.70;;;;;;;-5.38;94.56;96099.03;6209255;23;20000;-62
2022/01/07 04:52:33;;;;;;;9.02;6.20;;;;;;;-5.43;95.04;96100.00;6209562;23;20438;-62
2022/01/07 04:54:59;;;;;;;11.25;7.07;;;;;;;-5.47;95.41;96102.66;6209334;23;20077;-62
2022/01/07 04:57:24;;;;;;;9.98;7.00;;;;;;;-5.49;95.06;96099.28;6209098;23;20484;-62
2022/01/07 04:59:50;;;;;;;8.40;7.05;;;;;;;-5.47;95.01;96094.13;6209346;23;20458;-62
2022/01/07 05:02:19;;;;;;;6.68;6.05;;;;;;;-5.39;94.76;96096.53;6209115;23;20028;-62
2022/01/07 05:04:45;;;;;;;8.18;6.60;;;;;;;-5.38;95.02;96099.03;6209122;23;20054;-62
2022/01/07 05:07:10;;;;;;;9.57;6.97;;;;;;;-5.38;95.14;96093.91;6208975;23;20012;-62
2022/01/07 05:09:36;;;;;;;7.18;6.55;;;;;;;-5.36;95.58;96093.88;6209159;23;20057;-62
2022/01/07 05:12:02;;;;;;;9.77;6.43;;;;;;;-5.34;95.19;96097.25;6208992;23;20385;-62
2022/01/07 05:14:27;;;;;;;8.00;6.13;;;;;;;-5.40;95.26;96095.66;6208762;23;20004;-62
2022/01/07 05:16:53;;;;;;;8.02;5.55;;;;;;;-5.39;95.81;96101.66;6207439;23;20103;-62
2022/01/07 05:19:18;;;;;;;7.15;5.60;;;;;;;-5.37;96.47;96102.47;6208917;23;20343;-62
2022/01/07 05:21:43;;;;;;;7.10;6.03;;;;;;;-5.36;96.17;96107.53;6208552;23;20000;-62
2022/01/07 05:24:09;;;;;;;7.15;6.00;;;;;;;-5.32;95.20;96116.03;6208684;23;20084;-62
2022/01/07 05:26:34;;;;;;;9.85;6.00;;;;;;;-5.33;95.31;96117.75;6208869;23;20020;-62
2022/01/07 05:29:00;;;;;;;9.32;6.60;;;;;;;-5.30;94.85;96119.41;6209007;23;20329;-62
2022/01/07 05:31:26;;;;;;;8.95;6.05;;;;;;;-5.30;94.94;96121.97;6209028;23;20008;-62
2022/01/07 05:33:53;;;;;;;7.85;6.38;;;;;;;-5.27;95.23;96114.19;6208905;23;20005;-62
2022/01/07 05:36:19;;;;;;;10.73;5.88;;;;;;;-5.25;94.86;96109.88;6208583;23;20027;-62
2022/01/07 05:38:46;;;;;;;7.35;6.20;;;;;;;-5.23;94.69;96108.09;6207214;23;20095;-62
2022/01/07 05:41:12;;;;;;;6.10;5.57;;;;;;;-5.25;95.41;96115.00;6208801;23;20011;-62
2022/01/07 05:43:37;;;;;;;9.43;5.82;;;;;;;-5.25;94.90;96119.31;6208635;23;20030;-62
2022/01/07 05:46:03;;;;;;;5.35;4.90;;;;;;;-5.23;94.20;96115.81;6208832;23;20004;-62
2022/01/07 05:48:29;;;;;;;5.68;5.18;;;;;;;-5.14;95.04;96121.63;6210129;23;20727;-62
2022/01/07 05:50:54;;;;;;;5.80;5.30;;;;;;;-5.06;95.00;96117.16;6209809;23;20083;-62
2022/01/07 05:53:19;;;;;;;8.45;5.68;;;;;;;-5.06;95.32;96122.28;6210052;23;20005;-62
2022/01/07 05:55:45;;;;;;;5.07;4.60;;;;;;;-5.04;95.45;96115.38;6209800;23;20100;-62
2022/01/07 05:58:11;;;;;;;6.50;5.82;;;;;;;-5.00;95.58;96117.00;6209414;23;20036;-61
2022/01/07 06:00:36;;;;;;;7.10;6.38;;;;;;;-4.95;96.42;96115.19;6209839;23;20004;-62
2022/01/07 06:03:01;;;;;;;5.47;4.97;;;;;;;-4.89;95.15;96117.59;6210053;23;20032;-62
2022/01/07 06:05:27;;;;;;;10.07;4.65;;;;;;;-4.81;94.84;96111.41;6207841;23;20065;-62
2022/01/07 06:07:52;;;;;;;5.10;4.68;;;;;;;-4.76;94.51;96110.44;6209968;23;20004;-62
2022/01/07 06:10:18;;;;;;;5.28;4.68;;;;;;;-4.77;94.60;96107.88;6209569;23;20094;-62
2022/01/07 06:12:43;;;;;;;17.15;12.88;;;;;;;-4.80;94.89;96107.97;6210010;23;20046;-62
2022/01/07 06:15:09;;;;;;;14.85;9.30;;;;;;;-4.76;94.62;96119.84;6209891;23;20004;-62
2022/01/07 06:17:36;;;;;;;11.48;6.75;;;;;;;-4.72;94.28;96112.91;6209987;23;20043;-62
2022/01/07 06:20:03;;;;;;;6.88;6.22;;;;;;;-4.68;93.88;96115.38;6209707;23;20008;-62
2022/01/07 06:22:28;;;;;;;7.22;6.38;;;;;;;-4.64;94.73;96124.69;6209407;23;20074;-63
2022/01/07 06:24:54;;;;;;;7.78;6.07;;;;;;;-4.65;95.73;96123.00;6209755;23;20432;-62
2022/01/07 06:27:19;;;;;;;9.70;6.00;;;;;;;-4.64;95.60;96119.56;6209835;23;20009;-62
2022/01/07 06:29:45;;;;;;;10.18;7.57;;;;;;;-4.65;95.67;96120.44;6209915;23;20001;-62
2022/01/07 06:32:11;;;;;;;9.93;7.05;;;;;;;-4.64;96.63;96116.97;6209163;23;20011;-62
2022/01/07 06:34:36;;;;;;;10.27;6.90;;;;;;;-4.60;96.18;96122.91;6209573;23;20032;-62
2022/01/07 06:37:03;;;;;;;13.93;7.40;;;;;;;-4.61;95.69;96121.22;6208565;23;20054;-62
2022/01/07 06:39:29;;;;;;;8.50;7.13;;;;;;;-4.57;94.85;96119.38;6208519;23;20478;-62
2022/01/07 06:41:55;;;;;;;11.65;8.80;;;;;;;-4.57;94.96;96116.81;6206657;23;20008;-62
2022/01/07 06:44:21;;;;;;;11.70;9.85;;;;;;;-4.59;94.97;96119.44;6207057;23;20054;-62
2022/01/07 06:46:46;;;;;;;10.38;9.25;;;;;;;-4.62;95.59;96117.78;6209407;23;20013;-63
2022/01/07 06:49:15;;;;;;;11.30;8.80;;;;;;;-4.69;95.16;96116.25;6209496;23;20077;-61
2022/01/07 06:51:42;;;;;;;13.00;8.50;;;;;;;-4.77;96.12;96118.16;6208781;23;20339;-63
2022/01/07 06:54:11;;;;;;;8.18;6.80;;;;;;;-4.85;96.42;96112.38;6209559;23;20385;-63
2022/01/07 06:56:43;;;;;;;9.32;7.63;;;;;;;-4.88;95.49;96110.72;6208072;23;20021;-64
2022/01/07 06:59:09;;;;;;;8.00;7.20;;;;;;;-4.89;95.08;96115.03;6208772;23;20004;-64
2022/01/07 07:01:35;;;;;;;7.32;6.43;;;;;;;-4.88;95.37;96118.41;6208353;23;20762;-64
2022/01/07 07:04:01;;;;;;;7.55;6.50;;;;;;;-4.89;95.82;96109.88;6208154;23;20020;-61
2022/01/07 07:06:26;;;;;;;7.07;6.38;;;;;;;-4.86;96.38;96126.09;6208979;23;20000;-63
2022/01/07 07:08:52;;;;;;;9.38;6.63;;;;;;;-4.87;95.86;96130.38;6209048;23;20053;-62
2022/01/07 07:11:18;;;;;;;6.75;6.07;;;;;;;-4.86;96.62;96138.94;6208051;23;20058;-62
2022/01/07 07:13:43;;;;;;;6.65;6.05;;;;;;;-4.89;96.55;96139.84;6209561;23;20080;-62
2022/01/07 07:16:09;;;;;;;7.80;6.95;;;;;;;-4.93;96.67;96156.22;6208414;23;20040;-61
2022/01/07 07:18:34;;;;;;;7.78;6.40;;;;;;;-4.93;95.50;96164.78;6209300;23;20393;-58
2022/01/07 07:20:59;;;;;;;7.13;6.43;;;;;;;-4.94;95.40;96167.38;6209506;23;20008;-59
2022/01/07 07:23:25;;;;;;;8.18;7.38;;;;;;;-4.94;94.71;96182.78;6209384;23;20077;-57
2022/01/07 07:25:51;;;;;;;13.35;10.70;;;;;;;-4.98;95.91;96186.31;6209477;23;20313;-57
2022/01/07 07:28:18;;;;;;;15.27;12.10;;;;;;;-5.00;96.06;96188.91;6209556;23;20053;-57
2022/01/07 07:30:44;;;;;;;20.23;11.48;;;;;;;-5.02;95.55;96200.94;6209570;23;20000;-57
2022/01/07 07:36:48;;;;;;;18.05;10.73;;;;;;;-5.09;95.00;96209.66;6209602;23;20474;-58
2022/01/07 07:38:43;;;;;;;13.97;7.07;;;;;;;-5.01;94.97;96206.94;6189496;23;20013;-58
2022/01/07 07:41:10;;;;;;;15.57;11.60;;;;;;;-4.96;94.71;96208.53;6209271;23;20001;-59
2022/01/07 07:43:36;;;;;;;10.77;8.73;;;;;;;-4.91;93.96;96199.00;6207782;23;20009;-60
2022/01/07 07:46:02;;;;;;;9.35;8.40;;;;;;;-4.90;94.16;96192.97;6209430;23;20004;-59
2022/01/07 07:48:29;;;;;;;10.75;8.63;;;;;;;-4.97;95.01;96194.00;6209140;23;20000;-53
2022/01/07 07:50:54;;;;;;;9.18;8.13;;;;;;;-4.98;95.45;96194.84;6208823;23;20097;-57
2022/01/07 07:53:20;;;;;;;11.38;8.65;;;;;;;-4.99;94.86;96188.03;6207166;23;20020;-59
2022/01/07 07:55:51;;;;;;;16.27;10.98;;;;;;;-5.01;94.84;96174.38;6208353;23;20023;-59
2022/01/07 07:58:16;;;;;;;22.88;12.02;;;;;;;-5.03;95.60;96168.44;6208321;23;20000;-58
2022/01/07 08:00:42;;;;;;;17.73;12.60;;;;;;;-5.02;95.35;96162.41;6206244;23;20007;-59
2022/01/07 08:03:07;;;;;;;16.13;12.00;;;;;;;-5.07;95.79;96161.69;6207849;23;20009;-59
2022/01/07 08:05:32;;;;;;;17.88;13.50;;;;;;;-5.09;96.44;96148.03;6208410;23;20420;-58
2022/01/07 08:08:02;;;;;;;15.85;12.60;;;;;;;-5.12;95.82;96160.97;6208242;23;20005;-59
2022/01/07 08:10:28;;;;;;;22.70;12.52;;;;;;;-5.13;96.11;96157.53;6207309;23;20111;-58
2022/01/07 08:13:27;;;;;;;14.63;10.38;;;;;;;-5.11;96.16;96154.94;6208608;23;20444;-59
2022/01/07 08:16:02;;;;;;;13.32;10.38;;;;;;;-5.09;95.62;96153.19;6207918;22;20013;-59
2022/01/07 08:18:29;;;;;;;15.73;13.00;;;;;;;-5.09;95.75;96166.00;6208558;23;20001;-59
2022/01/07 08:20:57;;;;;;;21.02;15.35;;;;;;;-4.96;94.84;96164.88;6208317;23;20050;-59
2022/01/07 08:23:23;;;;;;;23.30;18.35;;;;;;;-4.96;93.62;96159.72;6208536;23;20075;-59
2022/01/07 08:25:49;;;;;;;18.58;15.43;;;;;;;-5.08;94.34;96157.44;6208451;23;20480;-59
2022/01/07 08:28:16;;;;;;;17.83;14.63;;;;;;;-5.03;94.60;96156.44;6206922;23;20005;-59
2022/01/07 08:36:10;;;;;;;32.60;24.50;;;;;;;-5.09;96.48;96145.47;6207656;23;20073;-60
2022/01/07 08:38:36;;;;;;;42.70;30.92;;;;;;;-5.16;96.24;96143.94;6208649;23;20005;-59
2022/01/07 08:41:02;;;;;;;46.35;37.40;;;;;;;-5.16;96.35;96137.06;6208343;23;20000;-59
2022/01/07 08:43:27;;;;;;;43.13;31.20;;;;;;;-5.06;95.90;96135.97;6208291;23;20001;-60
2022/01/07 08:45:53;;;;;;;40.60;31.35;;;;;;;-5.04;95.58;96141.94;6208127;23;20009;-59
2022/01/07 08:48:18;;;;;;;45.83;31.33;;;;;;;-5.05;96.67;96144.50;6207670;23;20024;-59
2022/01/07 08:50:44;;;;;;;34.78;28.92;;;;;;;-5.06;96.56;96150.53;6208021;23;20000;-61
2022/01/07 08:53:10;;;;;;;40.88;31.75;;;;;;;-5.04;96.76;96156.47;6208146;23;20050;-59
2022/01/07 08:55:35;;;;;;;48.80;35.35;;;;;;;-4.98;97.31;96160.63;6208163;23;20061;-60
2022/01/07 08:58:01;;;;;;;48.97;34.67;;;;;;;-4.96;95.89;96164.00;6207900;23;20008;-60
2022/01/07 09:00:27;;;;;;;45.00;32.50;;;;;;;-4.95;95.54;96163.97;6207928;23;20005;-59
2022/01/07 09:02:52;;;;;;;39.70;30.20;;;;;;;-4.94;95.79;96167.38;6207355;23;20164;-59
2022/01/07 09:05:17;;;;;;;45.92;31.48;;;;;;;-4.92;94.67;96166.47;6206947;23;20009;-59
2022/01/07 09:07:43;;;;;;;51.13;37.10;;;;;;;-4.90;95.22;96169.84;6207661;23;20012;-59
2022/01/07 09:10:08;;;;;;;47.35;32.95;;;;;;;-4.85;95.46;96168.91;6207886;23;20459;-59
2022/01/07 09:12:34;;;;;;;43.65;27.25;;;;;;;-4.84;94.71;96174.00;6207705;23;20097;-59
2022/01/07 09:14:59;;;;;;;33.70;24.00;;;;;;;-4.82;94.51;96167.09;6207414;23;20232;-59
2022/01/07 09:17:26;;;;;;;35.75;23.65;;;;;;;-4.78;94.90;96168.72;6208341;23;20005;-59
2022/01/07 09:19:51;;;;;;;31.75;25.42;;;;;;;-4.77;95.77;96164.41;6208536;23;20084;-59
2022/01/07 09:22:17;;;;;;;33.80;25.98;;;;;;;-4.81;96.25;96161.09;6207867;23;20009;-59
2022/01/07 09:24:42;;;;;;;30.75;23.85;;;;;;;-4.82;97.01;96161.97;6208330;23;20443;-59
2022/01/07 09:27:08;;;;;;;31.13;21.48;;;;;;;-4.81;97.27;96153.38;6208212;23;20392;-59
2022/01/07 09:29:33;;;;;;;39.67;28.98;;;;;;;-4.75;96.25;96152.41;6208765;23;20005;-58
2022/01/07 09:31:59;;;;;;;41.33;27.10;;;;;;;-4.75;96.71;96157.53;6209102;23;20344;-59
2022/01/07 09:34:24;;;;;;;30.73;22.60;;;;;;;-4.73;97.87;96155.75;6209047;23;20093;-59
2022/01/07 09:36:49;;;;;;;49.40;25.42;;;;;;;-4.44;98.77;96161.03;6209227;23;20295;-56
2022/01/07 09:39:15;;;;;;;34.00;21.80;;;;;;;-3.81;98.18;96161.97;6209391;23;20001;-57
2022/01/07 09:41:40;;;;;;;37.00;23.05;;;;;;;-3.08;96.33;96165.00;6207641;23;20004;-57
2022/01/07 09:44:10;;;;;;;33.03;22.02;;;;;;;-2.61;91.15;96173.88;6207740;23;20012;-57
2022/01/07 09:46:36;;;;;;;30.48;23.30;;;;;;;-2.33;91.05;96170.38;6208537;23;20000;-57
2022/01/07 09:49:04;;;;;;;36.97;24.85;;;;;;;-2.22;88.78;96178.59;6209228;23;20007;-57
2022/01/07 09:51:29;;;;;;;34.17;21.55;;;;;;;-1.91;88.87;96180.13;6207768;23;20000;-57
2022/01/07 09:53:54;;;;;;;30.73;21.88;;;;;;;-1.63;87.53;96175.75;6208946;23;20001;-57
2022/01/07 09:56:20;;;;;;;23.35;15.43;;;;;;;-1.27;86.46;96183.00;6208966;23;20516;-55
2022/01/07 09:58:45;;;;;;;42.15;26.67;;;;;;;-1.06;86.89;96189.13;6208501;23;20444;-57
2022/01/07 10:01:16;;;;;;;33.33;22.58;;;;;;;-0.95;85.38;96187.88;6208124;23;20032;-56
2022/01/07 10:03:43;;;;;;;17.92;12.70;;;;;;;-0.93;87.00;96191.22;6208100;23;20038;-58
2022/01/07 10:06:23;;;;;;;12.38;10.75;;;;;;;-0.70;86.56;96192.94;6209163;23;20009;-57
2022/01/07 10:09:10;;;;;;;10.38;8.82;;;;;;;-0.64;84.79;96194.44;6207751;23;20000;-57
2022/01/07 10:11:36;;;;;;;7.90;6.45;;;;;;;-0.48;84.14;96198.06;6208314;23;20448;-57
2022/01/07 10:14:21;;;;;;;9.27;7.70;;;;;;;-0.35;83.56;96207.94;6209073;23;20008;-56
2022/01/07 10:16:53;;;;;;;9.10;5.93;;;;;;;-0.12;83.63;96201.81;6207891;23;20013;-57
2022/01/07 10:19:37;;;;;;;9.90;7.55;;;;;;;-0.06;80.11;96204.16;6208814;23;20004;-56
2022/01/07 10:22:11;;;;;;;9.93;8.10;;;;;;;0.23;81.24;96189.13;6207229;23;20036;-56
2022/01/07 10:24:57;;;;;;;7.47;6.07;;;;;;;0.37;78.67;96185.13;6208250;23;20004;-57
2022/01/07 10:27:25;;;;;;;6.18;4.07;;;;;;;0.50;76.36;96181.06;6209226;23;20031;-58
2022/01/07 10:29:51;;;;;;;6.90;4.70;;;;;;;0.65;70.76;96183.88;6209359;23;20008;-58
2022/01/07 10:32:22;;;;;;;5.88;4.90;;;;;;;0.84;70.14;96176.97;6208814;23;20463;-56
2022/01/07 10:35:09;;;;;;;17.60;7.45;;;;;;;0.99;74.55;96170.22;6208506;23;20009;-55
2022/01/07 10:37:59;;;;;;;10.05;5.78;;;;;;;0.94;72.76;96179.13;6208111;23;20512;-56
2022/01/07 10:40:36;;;;;;;7.57;5.90;;;;;;;0.86;71.07;96171.69;6207903;23;20005;-56
2022/01/07 10:43:09;;;;;;;9.13;6.18;;;;;;;0.75;72.83;96173.94;6207655;23;20028;-58
2022/01/07 10:45:36;;;;;;;7.03;6.10;;;;;;;0.44;72.11;96178.75;6208903;23;20545;-57
2022/01/07 10:48:02;;;;;;;6.75;5.32;;;;;;;0.32;73.02;96166.31;6209137;23;20001;-57
2022/01/07 10:50:27;;;;;;;6.57;4.78;;;;;;;0.37;69.51;96164.38;6209067;23;20000;-56
2022/01/07 10:53:14;;;;;;;5.07;4.60;;;;;;;0.39;67.27;96165.97;6208072;23;20097;-55
2022/01/07 10:55:39;;;;;;;5.57;4.35;;;;;;;0.41;65.77;96161.56;6208924;23;20020;-58
2022/01/07 10:58:05;;;;;;;4.90;4.30;;;;;;;0.24;66.22;96161.50;6207025;23;20036;-56
2022/01/07 11:00:36;;;;;;;3.85;3.55;;;;;;;-0.20;66.20;96163.34;6206995;23;20001;-57
2022/01/07 11:03:07;;;;;;;3.90;3.60;;;;;;;-0.24;66.62;96166.09;6207224;23;20451;-54
2022/01/07 11:05:32;;;;;;;5.28;4.10;;;;;;;-0.27;67.46;96166.25;6207004;23;20004;-57
2022/01/07 11:07:59;;;;;;;6.15;4.43;;;;;;;0.32;64.31;96171.50;6207025;23;20009;-56
2022/01/07 11:10:27;;;;;;;5.72;4.72;;;;;;;-0.05;67.15;96177.38;6206377;23;20037;-57
2022/01/07 11:12:53;;;;;;;5.10;4.60;;;;;;;-0.08;69.20;96174.91;6206723;23;20005;-57
2022/01/07 11:15:19;;;;;;;10.85;4.22;;;;;;;0.39;65.77;96178.94;6207613;23;20012;-55
2022/01/07 11:17:44;;;;;;;8.23;5.15;;;;;;;0.43;65.90;96180.47;6207640;23;20001;-58
2022/01/07 11:20:12;;;;;;;6.60;4.82;;;;;;;0.50;65.23;96181.06;6208399;23;20009;-58
2022/01/07 11:22:40;;;;;;;6.55;5.22;;;;;;;0.22;66.40;96192.63;6208203;22;20005;-57
2022/01/07 11:25:11;;;;;;;4.75;4.20;;;;;;;0.14;65.55;96192.13;6206933;23;20444;-57
2022/01/07 11:27:47;;;;;;;5.60;4.65;;;;;;;0.23;66.94;96193.50;6208709;23;20004;-58
2022/01/07 11:30:15;;;;;;;6.80;5.35;;;;;;;0.26;67.05;96186.41;6208982;23;20005;-57
2022/01/07 11:32:48;;;;;;;5.38;4.90;;;;;;;0.34;67.74;96180.91;6208395;23;20008;-57
2022/01/07 11:35:17;;;;;;;6.20;5.60;;;;;;;0.62;67.45;96176.25;6209077;23;20005;-58